地図

経路データ

SID SEASON NUMBER BASIN SUBBASIN NAME ISO_TIME NATURE LAT LON WMO_WIND WMO_PRES WMO_AGENCY TRACK_TYPE DIST2LAND LANDFALL IFLAG USA_AGENCY USA_ATCF_ID USA_LAT USA_LON USA_RECORD USA_STATUS USA_WIND USA_PRES USA_SSHS USA_R34_NE USA_R34_SE USA_R34_SW USA_R34_NW USA_R50_NE USA_R50_SE USA_R50_SW USA_R50_NW USA_R64_NE USA_R64_SE USA_R64_SW USA_R64_NW USA_POCI USA_ROCI USA_RMW USA_EYE TOKYO_LAT TOKYO_LON TOKYO_GRADE TOKYO_WIND TOKYO_PRES TOKYO_R50_DIR TOKYO_R50_LONG TOKYO_R50_SHORT TOKYO_R30_DIR TOKYO_R30_LONG TOKYO_R30_SHORT TOKYO_LAND CMA_LAT CMA_LON CMA_CAT CMA_WIND CMA_PRES HKO_LAT HKO_LON HKO_CAT HKO_WIND HKO_PRES NEWDELHI_LAT NEWDELHI_LON NEWDELHI_GRADE NEWDELHI_WIND NEWDELHI_PRES NEWDELHI_CI NEWDELHI_DP NEWDELHI_POCI REUNION_LAT REUNION_LON REUNION_TYPE REUNION_WIND REUNION_PRES REUNION_TNUM REUNION_CI REUNION_RMW REUNION_R34_NE REUNION_R34_SE REUNION_R34_SW REUNION_R34_NW REUNION_R50_NE REUNION_R50_SE REUNION_R50_SW REUNION_R50_NW REUNION_R64_NE REUNION_R64_SE REUNION_R64_SW REUNION_R64_NW BOM_LAT BOM_LON BOM_TYPE BOM_WIND BOM_PRES BOM_TNUM BOM_CI BOM_RMW BOM_R34_NE BOM_R34_SE BOM_R34_SW BOM_R34_NW BOM_R50_NE BOM_R50_SE BOM_R50_SW BOM_R50_NW BOM_R64_NE BOM_R64_SE BOM_R64_SW BOM_R64_NW BOM_ROCI BOM_POCI BOM_EYE BOM_POS_METHOD BOM_PRES_METHOD NADI_LAT NADI_LON NADI_CAT NADI_WIND NADI_PRES WELLINGTON_LAT WELLINGTON_LON WELLINGTON_WIND WELLINGTON_PRES DS824_LAT DS824_LON DS824_STAGE DS824_WIND DS824_PRES TD9636_LAT TD9636_LON TD9636_STAGE TD9636_WIND TD9636_PRES TD9635_LAT TD9635_LON TD9635_WIND TD9635_PRES TD9635_ROCI NEUMANN_LAT NEUMANN_LON NEUMANN_CLASS NEUMANN_WIND NEUMANN_PRES MLC_LAT MLC_LON MLC_CLASS MLC_WIND MLC_PRES USA_GUST BOM_GUST BOM_GUST_PER REUNION_GUST REUNION_GUST_PER USA_SEAHGT USA_SEARAD_NE USA_SEARAD_SE USA_SEARAD_SW USA_SEARAD_NW STORM_SPEED STORM_DIR
1939021S08092 1939 7 SI WA NOT_NAMED 1939-01-21 06:00:00 NR -8.00000 92.3000 main 1016 1008 _____O________ -1 -8.00000 92.3000 99 9.90000 2 77
1939021S08092 1939 7 SI WA NOT_NAMED 1939-01-21 09:00:00 NR -7.98164 92.3828 main 1008 1008 _____P________ -1 -7.98164 92.3828 99 1 79
1939021S08092 1939 7 SI WA NOT_NAMED 1939-01-21 12:00:00 NR -7.97219 92.4446 main 1008 1000 _____P________ -1 -7.97219 92.4446 99 1 89
1939021S08092 1939 7 SI WA NOT_NAMED 1939-01-21 15:00:00 NR -7.98055 92.4645 main 1000 1000 _____P________ -1 -7.98055 92.4645 99 0 0
1939021S08092 1939 7 SI WA NOT_NAMED 1939-01-21 18:00:00 NR -8.01564 92.4216 main 1008 1008 _____P________ -1 -8.01564 92.4216 99 2 238
1939021S08092 1939 7 SI WA NOT_NAMED 1939-01-21 21:00:00 NR -8.08634 92.2949 main 1024 1024 _____P________ -1 -8.08634 92.2949 99 4 242
1939021S08092 1939 7 SI WA NOT_NAMED 1939-01-22 00:00:00 NR -8.20150 92.0632 main 1048 1048 _____P________ -1 -8.20150 92.0632 99 7 244
1939021S08092 1939 7 SI WA NOT_NAMED 1939-01-22 03:00:00 NR -8.36985 91.7055 main 1095 1095 _____P________ -1 -8.36985 91.7055 99 9 245
1939021S08092 1939 7 SI WA NOT_NAMED 1939-01-22 06:00:00 NR -8.60000 91.2000 main 1151 1151 _____O________ -1 -8.60000 91.2000 99 9.90000 13 246
1939021S08092 1939 7 SI WA NOT_NAMED 1939-01-22 09:00:00 NR -8.89724 90.5327 main 1231 1231 _____P________ -1 -8.89724 90.5327 99 16 246
1939021S08092 1939 7 SI MM NOT_NAMED 1939-01-22 12:00:00 NR -9.25453 89.7195 main 1327 1327 _____P________ -1 -9.25453 89.7195 99 19 246
1939021S08092 1939 7 SI MM NOT_NAMED 1939-01-22 15:00:00 NR -9.66170 88.7841 main 1432 1432 _____P________ -1 -9.66170 88.7841 99 21 246
1939021S08092 1939 7 SI MM NOT_NAMED 1939-01-22 18:00:00 NR -10.1087 87.7500 main 1547 1547 _____P________ -1 -10.1087 87.7500 99 23 246
1939021S08092 1939 7 SI MM NOT_NAMED 1939-01-22 21:00:00 NR -10.5854 86.6410 main 1686 1686 _____P________ -1 -10.5854 86.6410 99 24 246
1939021S08092 1939 7 SI MM NOT_NAMED 1939-01-23 00:00:00 NR -11.0823 85.4807 main 1816 1816 _____P________ -1 -11.0823 85.4807 99 25 246
1939021S08092 1939 7 SI MM NOT_NAMED 1939-01-23 03:00:00 NR -11.5901 84.2926 main 1956 1956 _____P________ -1 -11.5901 84.2926 99 26 246
1939021S08092 1939 7 SI MM NOT_NAMED 1939-01-23 06:00:00 NR -12.1000 83.1000 main 2035 2034 _____O________ -1 -12.1000 83.1000 99 9.90000 26 250
1939021S08092 1939 7 SI MM NOT_NAMED 1939-01-23 09:00:00 NR -12.4787 81.7706 main 2065 2063 _____P________ -1 -12.4787 81.7706 99 28 254
1939021S08092 1939 7 SI MM NOT_NAMED 1939-01-23 12:00:00 NR -12.8534 80.3886 main 2106 2106 _____P________ -1 -12.8534 80.3886 99 28 254
1939021S08092 1939 7 SI MM NOT_NAMED 1939-01-23 15:00:00 NR -13.2405 79.0057 main 2147 2147 _____P________ -1 -13.2405 79.0057 99 28 253
1939021S08092 1939 7 SI MM NOT_NAMED 1939-01-23 18:00:00 NR -13.6571 77.6739 main 2219 2102 _____P________ -1 -13.6571 77.6739 99 26 250
1939021S08092 1939 7 SI MM NOT_NAMED 1939-01-23 21:00:00 NR -14.1216 76.4454 main 2092 1971 _____P________ -1 -14.1216 76.4454 99 24 246
1939021S08092 1939 7 SI MM NOT_NAMED 1939-01-24 00:00:00 NR -14.6533 75.3721 main 1967 1857 _____P________ -1 -14.6533 75.3721 99 22 238
1939021S08092 1939 7 SI MM NOT_NAMED 1939-01-24 03:00:00 NR -15.2725 74.5061 main 1853 1767 _____P________ -1 -15.2725 74.5061 99 20 227
1939021S08092 1939 7 SI MM NOT_NAMED 1939-01-24 06:00:00 NR -16.0000 73.9000 reunion main 1767 1710 _____O________ -1 -16.0000 73.9000 99 9.90000 18 209
1939021S08092 1939 7 SI MM NOT_NAMED 1939-01-24 09:00:00 NR -16.8513 73.5924 main 1707 1677 _____P________ -1 -16.8513 73.5924 99 19 190
1939021S08092 1939 7 SI MM NOT_NAMED 1939-01-24 12:00:00 NR -17.8181 73.5620 main 1683 1670 _____P________ -1 -17.8181 73.5620 99 21 175
1939021S08092 1939 7 SI MM NOT_NAMED 1939-01-24 15:00:00 NR -18.8849 73.7732 main 1682 1679 _____P________ -1 -18.8849 73.7732 99 23 165
1939021S08092 1939 7 SI MM NOT_NAMED 1939-01-24 18:00:00 NR -20.0350 74.1910 main 1711 1710 _____P________ -1 -20.0350 74.1910 99 26 158
1939021S08092 1939 7 SI MM NOT_NAMED 1939-01-24 21:00:00 NR -21.2505 74.7797 main 1769 1769 _____P________ -1 -21.2505 74.7797 99 28 154
1939021S08092 1939 7 SI MM NOT_NAMED 1939-01-25 00:00:00 NR -22.5126 75.5031 main 1847 1847 _____P________ -1 -22.5126 75.5031 99 29 151
1939021S08092 1939 7 SI MM NOT_NAMED 1939-01-25 03:00:00 NR -23.8022 76.3230 main 1944 1944 _____P________ -1 -23.8022 76.3230 99 30 149
1939021S08092 1939 7 SI MM NOT_NAMED 1939-01-25 06:00:00 NR -25.1000 77.2000 reunion main 2058 _____O________ -1 -25.1000 77.2000 99 9.90000 31 149

IBTrACS Databaseについて

本データベースは、米国NOAAが公開する1842年以降の世界の熱帯低気圧のベストトラックデータアーカイブInternational Best Track Archive for Climate Stewardship (IBTrACS)を、ウェブで閲覧しやすい形式に変換したものです。

最終更新日:2021-12-06